Time;durP1;ratioP1;P1;durP2;ratioP2;P2;SDS_P1;SDS_P2;PMS_P1;PMS_P2;Temp;Humidity;BMP_temperature;BMP_pressure;BME280_temperature;BME280_humidity;BME280_pressure;Samples;Min_cycle;Max_cycle;Signal;HPM_P1;HPM_P2
2021/07/29 00:00:40;;;;;;;5.13;1.90;;;;;;;15.89;93.04;100843.84;5266190;28;20040;-68
2021/07/29 00:03:11;;;;;;;6.05;1.90;;;;;;;15.89;93.09;100850.94;5267017;28;20036;-69
2021/07/29 00:05:43;;;;;;;3.97;1.55;;;;;;;15.84;93.58;100845.34;5266848;28;20021;-68
2021/07/29 00:08:14;;;;;;;5.47;2.13;;;;;;;15.79;93.40;100845.81;5266940;28;20017;-68
2021/07/29 00:10:47;;;;;;;7.40;1.90;;;;;;;15.77;93.72;100846.00;5265694;28;20111;-69
2021/07/29 00:13:19;;;;;;;4.72;1.65;;;;;;;15.76;93.76;100846.16;5266705;28;20039;-68
2021/07/29 00:15:50;;;;;;;7.45;1.90;;;;;;;15.74;93.19;100846.31;5254328;28;20028;-68
2021/07/29 00:21:11;;;;;;;5.78;1.80;;;;;;;15.68;93.96;100852.25;5267717;28;20041;-68
2021/07/29 00:23:42;;;;;;;5.95;1.70;;;;;;;15.63;93.96;100849.25;5265171;28;20040;-69
2021/07/29 00:26:13;;;;;;;5.07;1.90;;;;;;;15.60;94.29;100841.63;5265745;28;20052;-68
2021/07/29 00:28:44;;;;;;;7.15;2.03;;;;;;;15.62;94.16;100854.69;5265782;28;20031;-69
2021/07/29 00:31:16;;;;;;;7.00;2.33;;;;;;;15.61;93.94;100853.88;5265526;28;20025;-69
2021/07/29 00:33:47;;;;;;;6.20;1.95;;;;;;;15.60;93.68;100851.38;5266522;28;20016;-68
2021/07/29 00:36:20;;;;;;;9.85;1.90;;;;;;;15.60;93.72;100846.91;5264509;28;20025;-68
2021/07/29 00:38:52;;;;;;;6.03;1.80;;;;;;;15.57;94.22;100844.63;5270744;28;20603;-68
2021/07/29 00:41:23;;;;;;;10.13;2.40;;;;;;;15.61;93.51;100851.22;5265790;28;20071;-68
2021/07/29 00:44:00;;;;;;;8.00;1.60;;;;;;;15.69;93.85;100847.81;5266310;28;20024;-68
2021/07/29 00:46:32;;;;;;;5.78;2.00;;;;;;;15.64;93.87;100850.88;5265647;28;20150;-68
2021/07/29 00:49:05;;;;;;;6.40;1.70;;;;;;;15.66;94.21;100846.31;5263886;28;20023;-68
2021/07/29 00:51:36;;;;;;;4.60;1.50;;;;;;;15.64;94.43;100844.78;5266227;28;20270;-68
2021/07/29 00:54:07;;;;;;;6.75;1.83;;;;;;;15.66;93.47;100843.66;5265716;28;20036;-68
2021/07/29 00:56:44;;;;;;;5.82;1.85;;;;;;;15.66;93.79;100845.47;5266340;28;20091;-68
2021/07/29 00:59:15;;;;;;;8.35;2.00;;;;;;;15.69;93.68;100839.88;5265107;28;20358;-68
2021/07/29 01:01:46;;;;;;;5.80;2.00;;;;;;;15.69;93.48;100848.63;5266281;28;20021;-68
2021/07/29 01:04:18;;;;;;;9.57;2.45;;;;;;;15.69;93.64;100837.25;5265951;28;20036;-68
2021/07/29 01:06:49;;;;;;;6.55;1.80;;;;;;;15.72;93.57;100852.75;5267041;28;20025;-68
2021/07/29 01:09:20;;;;;;;8.95;2.55;;;;;;;15.71;93.29;100844.00;5265100;28;20036;-68
2021/07/29 01:11:52;;;;;;;6.13;1.77;;;;;;;15.72;92.94;100840.38;5266721;28;20055;-68
2021/07/29 01:14:23;;;;;;;6.80;2.63;;;;;;;15.76;93.21;100847.00;5267160;28;20656;-68
2021/07/29 01:16:54;;;;;;;7.68;2.05;;;;;;;15.78;93.27;100839.72;5255356;28;20028;-68
2021/07/29 01:19:27;;;;;;;11.57;2.35;;;;;;;15.79;93.17;100835.25;5264687;28;20434;-68
2021/07/29 01:21:58;;;;;;;6.88;2.47;;;;;;;15.76;93.04;100839.06;5265242;28;20134;-68
2021/07/29 01:24:29;;;;;;;6.85;2.10;;;;;;;15.78;93.04;100839.72;5265151;28;20055;-68
2021/07/29 01:27:01;;;;;;;6.55;2.05;;;;;;;15.78;93.27;100841.53;5265922;28;20033;-68
2021/07/29 01:29:32;;;;;;;6.25;2.03;;;;;;;15.78;93.03;100837.06;5264921;28;20078;-68
2021/07/29 01:32:04;;;;;;;4.70;1.77;;;;;;;15.77;92.94;100832.78;5264697;28;20087;-68
2021/07/29 01:34:35;;;;;;;7.22;2.00;;;;;;;15.76;92.76;100835.59;5265788;28;20029;-68
2021/07/29 01:37:06;;;;;;;6.28;2.03;;;;;;;15.73;93.62;100822.72;5265432;28;20055;-68
2021/07/29 01:39:38;;;;;;;6.70;1.90;;;;;;;15.73;93.03;100838.56;5265525;28;20021;-69
2021/07/29 01:42:09;;;;;;;5.05;2.13;;;;;;;15.70;92.75;100828.31;5250573;28;20039;-68
2021/07/29 01:44:40;;;;;;;10.27;2.47;;;;;;;15.70;92.70;100829.13;5266539;28;20113;-68
2021/07/29 01:47:12;;;;;;;9.48;2.13;;;;;;;15.67;93.12;100823.34;5254723;28;20033;-68
2021/07/29 01:49:44;;;;;;;7.45;2.35;;;;;;;15.67;92.88;100829.47;5254880;28;20485;-69
2021/07/29 01:52:16;;;;;;;8.93;2.30;;;;;;;15.64;93.24;100837.69;5269358;28;20112;-69
2021/07/29 01:54:48;;;;;;;8.48;1.83;;;;;;;15.61;93.37;100839.81;5269961;28;20048;-68
2021/07/29 01:57:19;;;;;;;7.95;1.83;;;;;;;15.60;93.82;100836.34;5270584;28;20103;-68
2021/07/29 01:59:51;;;;;;;7.28;2.10;;;;;;;15.49;94.17;100832.22;5269084;28;20152;-69
2021/07/29 02:02:22;;;;;;;9.98;1.75;;;;;;;15.49;94.27;100834.03;5267546;28;20032;-68
2021/07/29 02:04:54;;;;;;;8.75;2.03;;;;;;;15.47;94.33;100842.13;5268585;28;20016;-68
2021/07/29 02:07:25;;;;;;;7.00;2.28;;;;;;;15.44;94.61;100841.63;5268386;28;20464;-69
2021/07/29 02:09:56;;;;;;;8.23;2.03;;;;;;;15.42;94.77;100840.94;5268715;28;20485;-68
2021/07/29 02:12:27;;;;;;;5.45;2.00;;;;;;;15.39;95.02;100833.38;5269704;28;20427;-69
2021/07/29 02:14:59;;;;;;;9.07;2.13;;;;;;;15.38;95.55;100832.53;5271122;28;20374;-68
2021/07/29 02:17:30;;;;;;;8.43;2.17;;;;;;;15.33;95.58;100840.91;5267776;28;20024;-68
2021/07/29 02:20:02;;;;;;;10.35;2.13;;;;;;;15.30;95.84;100835.13;5268837;28;20051;-68
2021/07/29 02:22:33;;;;;;;5.15;2.03;;;;;;;15.25;96.02;100832.97;5268684;28;20043;-69
2021/07/29 02:25:05;;;;;;;8.77;2.08;;;;;;;15.20;96.33;100830.00;5268298;28;20078;-68
2021/07/29 02:27:36;;;;;;;7.63;2.20;;;;;;;15.19;96.64;100827.50;5268412;28;20032;-68
2021/07/29 02:30:08;;;;;;;7.60;2.13;;;;;;;15.20;96.70;100837.09;5268700;28;20082;-68
2021/07/29 02:32:40;;;;;;;12.32;2.67;;;;;;;15.19;96.66;100833.66;5269686;28;20027;-68
2021/07/29 02:35:11;;;;;;;6.43;2.33;;;;;;;15.16;97.20;100844.53;5268017;28;20126;-68
2021/07/29 02:37:42;;;;;;;7.82;2.25;;;;;;;15.14;97.13;100841.19;5267648;28;20039;-69
2021/07/29 02:40:14;;;;;;;7.20;1.88;;;;;;;15.14;97.35;100843.00;5269032;28;20037;-68
2021/07/29 02:42:45;;;;;;;9.50;2.17;;;;;;;15.14;97.54;100838.56;5268920;28;20073;-68
2021/07/29 02:45:16;;;;;;;10.65;2.40;;;;;;;15.10;97.72;100837.22;5269251;28;20112;-68
2021/07/29 02:47:47;;;;;;;10.50;2.65;;;;;;;15.06;98.16;100838.53;5267959;28;20025;-68
2021/07/29 02:50:19;;;;;;;9.77;2.00;;;;;;;15.05;98.45;100850.09;5268875;28;20017;-68
2021/07/29 02:52:50;;;;;;;8.05;2.13;;;;;;;14.99;98.38;100842.78;5268009;28;20028;-68
2021/07/29 02:55:22;;;;;;;8.18;2.47;;;;;;;14.98;98.61;100849.06;5267734;28;20032;-68
2021/07/29 02:57:53;;;;;;;9.90;2.13;;;;;;;15.00;99.01;100860.25;5266437;28;20056;-68
2021/07/29 03:00:24;;;;;;;9.63;2.78;;;;;;;14.94;98.98;100861.75;5267156;28;20033;-68
2021/07/29 03:02:56;;;;;;;8.35;2.15;;;;;;;14.89;99.49;100850.84;5268603;28;20021;-68
2021/07/29 03:05:27;;;;;;;6.10;2.30;;;;;;;14.90;99.59;100856.94;5254095;28;20396;-68
2021/07/29 03:07:59;;;;;;;8.70;2.20;;;;;;;14.88;99.96;100853.63;5268905;28;20044;-69
2021/07/29 03:10:31;;;;;;;9.40;2.85;;;;;;;14.78;100.00;100840.56;5266915;28;20025;-68
2021/07/29 03:13:04;;;;;;;8.23;2.38;;;;;;;14.84;100.00;100850.47;5268202;28;20032;-68
2021/07/29 03:15:35;;;;;;;6.88;2.47;;;;;;;14.83;100.00;100844.38;5267913;28;20067;-68
2021/07/29 03:18:06;;;;;;;12.27;3.10;;;;;;;14.80;100.00;100857.88;5266620;28;20372;-68
2021/07/29 03:20:40;;;;;;;11.38;2.85;;;;;;;14.77;100.00;100857.34;5267957;28;20537;-68
2021/07/29 03:23:11;;;;;;;8.38;2.45;;;;;;;14.76;100.00;100853.91;5268397;28;20052;-68
2021/07/29 03:25:47;;;;;;;6.30;2.60;;;;;;;14.79;100.00;100856.22;5267108;28;20488;-68
2021/07/29 03:28:20;;;;;;;8.38;2.53;;;;;;;14.74;100.00;100849.78;5267743;28;20109;-68
2021/07/29 03:30:52;;;;;;;10.07;2.58;;;;;;;14.74;100.00;100855.06;5267893;28;20058;-68
2021/07/29 03:33:24;;;;;;;8.73;2.50;;;;;;;14.75;100.00;100857.53;5267092;28;20709;-68
2021/07/29 03:35:55;;;;;;;10.85;2.72;;;;;;;14.74;100.00;100853.25;5267468;28;20667;-68
2021/07/29 03:38:26;;;;;;;7.75;2.53;;;;;;;14.70;100.00;100851.06;5268175;28;20031;-68
2021/07/29 03:40:57;;;;;;;10.73;3.00;;;;;;;14.62;100.00;100849.19;5266999;28;20368;-68
2021/07/29 03:43:29;;;;;;;7.05;2.72;;;;;;;14.69;100.00;100865.22;5267658;28;20028;-68
2021/07/29 03:46:00;;;;;;;12.82;3.22;;;;;;;14.64;100.00;100860.44;5266879;28;20032;-69
2021/07/29 03:48:31;;;;;;;11.70;2.47;;;;;;;14.64;100.00;100863.06;5268076;28;20060;-68
2021/07/29 03:51:02;;;;;;;8.93;2.67;;;;;;;14.67;100.00;100873.31;5265698;28;20028;-68
2021/07/29 03:53:34;;;;;;;10.35;2.97;;;;;;;14.67;100.00;100873.31;5248655;28;20064;-68
2021/07/29 03:56:07;;;;;;;12.75;2.92;;;;;;;14.69;100.00;100878.41;5268140;28;20020;-68
2021/07/29 03:58:38;;;;;;;9.05;2.65;;;;;;;14.68;100.00;100874.94;5266568;28;20044;-68
2021/07/29 04:01:11;;;;;;;6.93;2.45;;;;;;;14.72;100.00;100878.09;5265007;28;20769;-68
2021/07/29 04:03:42;;;;;;;7.27;2.43;;;;;;;14.74;100.00;100874.34;5265723;28;20033;-68
2021/07/29 04:06:17;;;;;;;8.05;2.92;;;;;;;14.77;100.00;100875.81;5264671;28;20357;-68
2021/07/29 04:08:49;;;;;;;9.30;2.42;;;;;;;14.80;100.00;100880.78;5267339;28;20029;-68
2021/07/29 04:11:20;;;;;;;11.17;2.97;;;;;;;14.81;100.00;100875.38;5267724;28;20492;-68
2021/07/29 04:13:51;;;;;;;9.38;2.58;;;;;;;14.84;100.00;100874.22;5267657;28;20347;-68
2021/07/29 04:16:22;;;;;;;9.82;3.00;;;;;;;14.86;100.00;100880.16;5267738;28;20032;-68
2021/07/29 04:18:54;;;;;;;11.43;3.00;;;;;;;14.89;100.00;100876.38;5255753;28;20055;-69
2021/07/29 04:21:25;;;;;;;12.48;3.03;;;;;;;14.92;100.00;100881.34;5267026;28;20397;-68
2021/07/29 04:23:56;;;;;;;9.50;2.90;;;;;;;14.90;100.00;100885.97;5266633;28;20028;-68
2021/07/29 04:26:27;;;;;;;9.40;2.30;;;;;;;14.90;100.00;100889.41;5265861;28;20260;-68
2021/07/29 04:28:59;;;;;;;9.10;2.47;;;;;;;14.87;100.00;100884.44;5267218;28;20281;-68
2021/07/29 04:31:30;;;;;;;13.90;2.78;;;;;;;14.90;100.00;100891.22;5267687;28;20074;-68
2021/07/29 04:34:01;;;;;;;9.10;3.00;;;;;;;14.92;100.00;100903.25;5264919;28;20474;-68
2021/07/29 04:36:39;;;;;;;6.60;3.10;;;;;;;14.94;100.00;100893.41;5266074;28;20507;-69
2021/07/29 04:39:11;;;;;;;11.38;3.20;;;;;;;14.92;100.00;100895.34;5266819;28;20120;-68
2021/07/29 04:41:43;;;;;;;8.20;2.50;;;;;;;14.95;100.00;100907.41;5268111;28;20405;-69
2021/07/29 04:44:15;;;;;;;7.60;2.40;;;;;;;14.95;100.00;100900.31;5265169;28;20135;-68
2021/07/29 04:46:46;;;;;;;10.07;2.45;;;;;;;14.98;100.00;100904.47;5264986;28;20305;-68
2021/07/29 04:49:22;;;;;;;9.38;2.80;;;;;;;15.02;100.00;100911.91;5266714;28;20550;-68
2021/07/29 04:51:53;;;;;;;13.88;3.28;;;;;;;15.02;100.00;100914.53;5266705;28;20478;-68
2021/07/29 04:54:24;;;;;;;9.25;2.92;;;;;;;15.05;100.00;100910.78;5265927;28;20072;-68
2021/07/29 04:56:56;;;;;;;11.20;2.92;;;;;;;15.04;100.00;100906.47;5266495;28;20027;-69
2021/07/29 04:59:27;;;;;;;9.70;2.80;;;;;;;15.05;100.00;100908.94;5265158;28;20021;-68
2021/07/29 05:01:58;;;;;;;13.43;3.28;;;;;;;15.06;100.00;100910.59;5264824;28;20028;-68
2021/07/29 05:04:29;;;;;;;9.63;2.50;;;;;;;15.05;100.00;100906.31;5264798;28;20056;-68
2021/07/29 05:07:01;;;;;;;8.13;2.35;;;;;;;15.06;100.00;100912.41;5266437;28;20225;-68
2021/07/29 05:09:32;;;;;;;9.02;3.00;;;;;;;15.08;100.00;100911.28;5266120;28;20479;-69
2021/07/29 05:12:04;;;;;;;8.57;2.78;;;;;;;15.11;100.00;100904.84;5266305;28;20016;-69
2021/07/29 05:14:35;;;;;;;9.25;2.83;;;;;;;15.11;100.00;100910.13;5265123;28;20036;-69
2021/07/29 05:17:07;;;;;;;11.27;3.25;;;;;;;15.08;100.00;100916.56;5264821;28;20021;-68
2021/07/29 05:19:38;;;;;;;10.85;3.22;;;;;;;15.08;100.00;100908.66;5262276;28;20468;-69
2021/07/29 05:22:09;;;;;;;12.13;2.95;;;;;;;15.13;100.00;100923.16;5248319;28;20035;-68
2021/07/29 05:24:40;;;;;;;7.93;2.42;;;;;;;15.14;100.00;100924.81;5263633;28;20056;-69
2021/07/29 05:27:12;;;;;;;10.85;2.42;;;;;;;15.15;100.00;100919.38;5265454;28;20040;-68
2021/07/29 05:29:43;;;;;;;9.82;2.78;;;;;;;15.26;100.00;100931.47;5265379;28;20024;-68
2021/07/29 05:32:14;;;;;;;13.73;2.85;;;;;;;15.34;100.00;100923.56;5265499;28;20032;-69
2021/07/29 05:34:46;;;;;;;11.77;2.70;;;;;;;15.41;100.00;100929.06;5253030;28;20106;-68
2021/07/29 05:37:17;;;;;;;65.53;8.80;;;;;;;15.49;100.00;100922.00;5263254;28;20030;-68
2021/07/29 05:39:48;;;;;;;23.00;4.25;;;;;;;15.56;100.00;100938.84;5264251;28;20021;-68
2021/07/29 05:42:23;;;;;;;17.70;3.00;;;;;;;15.55;100.00;100920.53;5265945;28;20417;-68
2021/07/29 05:44:54;;;;;;;11.10;3.20;;;;;;;15.61;100.00;100932.25;5263055;28;20059;-68
2021/07/29 05:47:26;;;;;;;8.00;2.47;;;;;;;15.62;100.00;100929.47;5253619;28;20502;-68
2021/07/29 05:49:57;;;;;;;12.43;2.80;;;;;;;15.58;100.00;100931.59;5265082;28;20489;-69
2021/07/29 05:52:28;;;;;;;12.18;2.58;;;;;;;15.57;100.00;100932.59;5262565;28;20044;-68
2021/07/29 05:55:00;;;;;;;17.83;2.92;;;;;;;15.62;100.00;100931.28;5266181;28;20033;-68
2021/07/29 05:57:34;;;;;;;11.95;3.25;;;;;;;15.66;100.00;100927.34;5264503;28;20024;-70
2021/07/29 06:00:06;;;;;;;8.90;2.40;;;;;;;15.71;100.00;100932.97;5245607;28;20098;-69
2021/07/29 06:02:37;;;;;;;12.95;3.47;;;;;;;15.81;100.00;100925.75;5265305;28;20032;-69
2021/07/29 06:05:09;;;;;;;8.02;2.95;;;;;;;15.82;99.67;100930.03;5264417;28;20031;-68
2021/07/29 06:07:40;;;;;;;19.60;3.72;;;;;;;15.88;99.52;100928.56;5265251;28;20029;-68
2021/07/29 06:10:11;;;;;;;8.97;2.73;;;;;;;15.90;99.28;100926.56;5265514;28;20492;-68
2021/07/29 06:12:43;;;;;;;8.97;2.63;;;;;;;15.84;98.53;100927.25;5263382;28;20283;-68
2021/07/29 06:15:14;;;;;;;12.30;3.58;;;;;;;15.91;98.99;100939.63;5265870;28;20316;-68
2021/07/29 06:17:50;;;;;;;10.40;2.70;;;;;;;15.92;99.00;100935.19;5265150;28;20021;-68
2021/07/29 06:20:21;;;;;;;10.02;3.00;;;;;;;15.91;98.64;100933.50;5264622;28;20051;-71
2021/07/29 06:22:53;;;;;;;10.07;2.75;;;;;;;15.97;99.07;100940.78;5263941;28;20521;-72
2021/07/29 06:25:24;;;;;;;12.52;2.35;;;;;;;15.96;98.22;100944.44;5265426;28;20025;-72
2021/07/29 06:27:55;;;;;;;14.55;3.55;;;;;;;15.98;97.94;100947.72;5264901;28;20474;-71
2021/07/29 06:30:30;;;;;;;9.90;2.55;;;;;;;16.00;98.47;100937.81;5264684;28;20017;-71
2021/07/29 06:33:01;;;;;;;12.40;2.75;;;;;;;16.10;98.23;100946.44;5267307;28;20055;-69
2021/07/29 06:35:32;;;;;;;12.85;3.13;;;;;;;16.15;97.40;100951.22;5267068;28;20099;-69
2021/07/29 06:38:04;;;;;;;13.40;3.25;;;;;;;16.23;97.43;100956.53;5272035;28;20435;-69
2021/07/29 06:40:35;;;;;;;11.23;2.92;;;;;;;16.19;96.97;100957.84;5267829;28;20028;-69
2021/07/29 06:43:06;;;;;;;14.80;3.30;;;;;;;16.15;95.73;100965.25;5268525;28;20016;-69
2021/07/29 06:45:38;;;;;;;15.98;3.22;;;;;;;16.15;96.64;100961.81;5267870;28;20021;-71
2021/07/29 06:48:09;;;;;;;12.55;3.70;;;;;;;16.16;95.93;100961.63;5266697;28;20028;-72
2021/07/29 06:50:40;;;;;;;12.88;3.03;;;;;;;16.26;95.59;100974.69;5269834;28;20032;-71
2021/07/29 06:53:12;;;;;;;9.30;2.90;;;;;;;16.32;96.16;100979.31;5267622;28;20035;-72
2021/07/29 06:55:43;;;;;;;24.90;4.15;;;;;;;16.37;95.74;100976.19;5270181;28;20028;-72
2021/07/29 06:58:14;;;;;;;12.18;3.13;;;;;;;16.46;94.53;100988.41;5268919;28;20493;-71
2021/07/29 07:00:46;;;;;;;13.98;3.60;;;;;;;16.53;94.45;100978.84;5268779;22;20107;-72
2021/07/29 07:12:17;;;;;;;12.75;3.50;;;;;;;16.83;93.53;100982.66;6108541;22;20060;-71
2021/07/29 07:15:04;;;;;;;9.18;2.75;;;;;;;16.98;93.41;100988.91;5295249;28;20024;-70
2021/07/29 07:17:35;;;;;;;15.43;3.85;;;;;;;16.83;91.88;100987.94;5294701;28;20500;-69
2021/07/29 07:32:22;;;;;;;15.90;3.38;;;;;;;17.31;90.45;100996.75;5266376;28;20036;-69
2021/07/29 07:44:00;;;;;;;14.25;3.35;;;;;;;17.91;88.94;101001.50;5430873;22;20064;-70
2021/07/29 07:46:31;;;;;;;14.77;3.25;;;;;;;17.93;87.27;101001.34;5267750;28;20035;-69
2021/07/29 07:56:03;;;;;;;10.65;2.70;;;;;;;18.17;86.65;101008.31;5274668;28;20029;-71
2021/07/29 07:58:35;;;;;;;8.48;2.90;;;;;;;18.07;86.46;101005.06;5267917;28;20029;-71
2021/07/29 08:01:17;;;;;;;10.17;2.77;;;;;;;18.28;86.01;101009.72;5267895;28;20496;-71
2021/07/29 08:03:51;;;;;;;19.60;3.85;;;;;;;18.36;84.91;100997.22;5284113;28;20277;-70
2021/07/29 08:06:23;;;;;;;10.77;2.78;;;;;;;18.41;83.27;101002.84;5284891;28;20043;-70
2021/07/29 08:08:55;;;;;;;18.85;4.35;;;;;;;18.46;82.39;101005.78;5289250;28;20384;-70
2021/07/29 08:11:26;;;;;;;11.60;3.43;;;;;;;18.39;82.73;101006.69;5291532;28;20040;-69
2021/07/29 08:13:59;;;;;;;12.80;3.03;;;;;;;18.54;82.86;101010.19;5289627;28;20118;-70
2021/07/29 08:16:30;;;;;;;12.27;3.17;;;;;;;18.53;80.83;101003.25;5289467;28;20031;-70
2021/07/29 08:19:04;;;;;;;20.30;3.30;;;;;;;18.65;79.93;101012.44;5291140;28;20038;-70
2021/07/29 08:21:36;;;;;;;14.75;3.58;;;;;;;18.71;80.67;101008.25;5284530;28;20487;-70
2021/07/29 08:24:07;;;;;;;11.98;2.90;;;;;;;18.74;80.95;101015.88;5289455;28;20032;-70
2021/07/29 08:26:39;;;;;;;16.47;4.30;;;;;;;18.65;80.00;101020.41;5291470;28;20035;-70
2021/07/29 08:29:11;;;;;;;11.02;3.03;;;;;;;18.54;79.88;101009.38;5288195;28;20027;-70
2021/07/29 08:31:42;;;;;;;8.90;3.43;;;;;;;18.50;81.09;101010.75;5284881;28;20036;-70
2021/07/29 08:34:14;;;;;;;9.80;3.17;;;;;;;18.62;79.66;101015.44;5288501;28;20336;-70
2021/07/29 08:36:45;;;;;;;13.43;4.07;;;;;;;18.74;79.32;101012.38;5290956;28;20240;-70
2021/07/29 08:39:16;;;;;;;14.50;4.00;;;;;;;18.86;79.51;101016.25;5290236;28;20802;-70
2021/07/29 08:41:48;;;;;;;10.83;2.97;;;;;;;18.71;79.31;101006.44;5291483;28;20136;-70
2021/07/29 08:44:19;;;;;;;41.37;7.37;;;;;;;18.89;81.20;101014.06;5290878;28;20086;-69
2021/07/29 08:46:50;;;;;;;11.33;3.20;;;;;;;18.89;80.45;101010.59;5291307;28;20134;-70
2021/07/29 08:49:26;;;;;;;9.07;2.63;;;;;;;19.11;81.21;101012.34;5291345;28;20081;-71
2021/07/29 08:51:57;;;;;;;15.50;3.72;;;;;;;19.32;77.19;101021.44;5290774;28;20081;-68
2021/07/29 08:54:28;;;;;;;12.90;3.30;;;;;;;19.36;76.48;101014.78;5288780;28;20028;-70
2021/07/29 08:57:00;;;;;;;9.10;2.70;;;;;;;19.43;76.25;101020.97;5289121;28;20032;-69
2021/07/29 08:59:31;;;;;;;11.73;2.97;;;;;;;19.32;76.87;101029.41;5289521;28;20059;-69
2021/07/29 09:02:02;;;;;;;15.13;2.90;;;;;;;19.16;76.52;101025.91;5289974;28;20031;-69
2021/07/29 09:04:34;;;;;;;12.67;2.90;;;;;;;19.25;77.30;101033.81;5291602;28;20419;-68
2021/07/29 09:07:05;;;;;;;12.83;3.40;;;;;;;19.22;78.00;101023.56;5290092;28;20063;-69
2021/07/29 09:09:49;;;;;;;11.33;3.50;;;;;;;19.28;77.91;101028.13;5292004;28;20484;-67
2021/07/29 09:12:22;;;;;;;10.80;2.92;;;;;;;19.16;76.64;101025.91;5292201;28;20024;-69
2021/07/29 09:14:54;;;;;;;9.45;2.53;;;;;;;19.22;77.11;101034.19;5292576;28;20023;-70
2021/07/29 09:17:42;;;;;;;10.10;2.67;;;;;;;19.26;75.34;101043.44;5288256;28;20044;-69
2021/07/29 09:20:18;;;;;;;9.35;3.30;;;;;;;19.08;75.73;101044.59;5289050;28;20067;-68
2021/07/29 09:22:52;;;;;;;13.32;3.35;;;;;;;18.88;76.34;101033.66;5286081;28;20024;-68
2021/07/29 09:25:26;;;;;;;20.40;3.85;;;;;;;18.93;77.20;101038.41;5272385;28;20120;-67
2021/07/29 09:28:02;;;;;;;7.43;2.47;;;;;;;19.22;76.48;101039.50;5290227;28;20028;-68
2021/07/29 09:30:34;;;;;;;7.13;2.42;;;;;;;19.59;76.29;101039.41;5290240;28;20028;-70
2021/07/29 09:33:09;;;;;;;7.95;3.05;;;;;;;19.79;74.96;101038.84;5273520;28;20140;-72
2021/07/29 09:35:52;;;;;;;9.23;2.92;;;;;;;19.90;73.53;101041.84;5289740;28;20032;-69
2021/07/29 09:38:32;;;;;;;14.90;3.70;;;;;;;19.80;73.13;101045.81;5290123;28;20115;-69
2021/07/29 09:41:06;;;;;;;9.60;3.00;;;;;;;19.93;71.29;101038.00;5288342;28;20033;-70
2021/07/29 09:43:38;;;;;;;16.23;3.17;;;;;;;20.16;72.17;101036.03;5288651;28;20083;-70
2021/07/29 09:46:19;;;;;;;12.05;3.28;;;;;;;20.34;72.04;101040.91;5266597;28;20563;-70
2021/07/29 09:48:51;;;;;;;9.63;2.80;;;;;;;20.20;71.57;101043.63;5289817;28;20531;-71
2021/07/29 09:51:23;;;;;;;9.03;2.73;;;;;;;19.98;70.85;101048.91;5292255;28;20039;-70
2021/07/29 09:54:02;;;;;;;10.52;3.10;;;;;;;19.88;71.37;101040.38;5291315;28;20039;-70
2021/07/29 09:56:33;;;;;;;8.30;2.85;;;;;;;19.63;71.71;101048.69;5290511;28;20031;-70
2021/07/29 09:59:04;;;;;;;9.63;3.43;;;;;;;19.33;82.08;101053.13;5290415;28;20032;-68
2021/07/29 10:01:42;;;;;;;10.30;2.93;;;;;;;19.16;82.65;101052.47;5290501;28;20036;-69
2021/07/29 10:04:14;;;;;;;11.55;3.25;;;;;;;19.06;84.31;101045.78;5288946;28;20020;-69
2021/07/29 10:06:47;;;;;;;11.85;3.47;;;;;;;19.11;86.00;101043.41;5289754;28;20396;-70
2021/07/29 10:09:22;;;;;;;7.45;2.97;;;;;;;19.27;85.05;101053.03;5289566;28;20028;-70
2021/07/29 10:11:58;;;;;;;11.02;2.58;;;;;;;19.29;83.24;101043.06;5291800;28;20128;-70
2021/07/29 10:14:50;;;;;;;7.30;2.90;;;;;;;19.29;81.48;101038.56;5273278;28;20024;-70
2021/07/29 10:17:33;;;;;;;10.60;2.95;;;;;;;19.25;82.92;101031.97;5292625;28;20028;-71
2021/07/29 10:20:20;;;;;;;9.80;2.78;;;;;;;19.24;79.71;101030.31;5292390;28;20039;-69
2021/07/29 10:23:13;;;;;;;10.55;2.67;;;;;;;19.60;81.59;101035.72;5293709;28;20123;-71
2021/07/29 10:25:54;;;;;;;;;;;;;;;19.99;80.02;101036.44;5293039;28;20445;-71
2021/07/29 10:28:27;;;;;;;10.00;2.90;;;;;;;20.34;73.64;101046.25;5290297;28;19924;-71
2021/07/29 10:31:02;;;;;;;9.02;2.95;;;;;;;20.51;73.39;101025.53;5292935;28;20392;-72
2021/07/29 10:33:33;;;;;;;8.18;2.40;;;;;;;20.43;71.87;101030.97;5291011;28;20413;-72
2021/07/29 10:36:06;;;;;;;11.30;2.83;;;;;;;20.09;72.49;101031.63;5287845;28;20039;-68
2021/07/29 10:38:37;;;;;;;7.80;2.33;;;;;;;19.88;71.73;101029.75;5293898;28;20035;-70
2021/07/29 10:41:08;;;;;;;15.70;3.20;;;;;;;19.89;73.98;101031.41;5294216;28;20032;-70
2021/07/29 10:43:40;;;;;;;6.70;2.30;;;;;;;19.81;71.74;101035.00;5296275;28;20044;-70
2021/07/29 10:46:11;;;;;;;10.60;2.70;;;;;;;19.78;72.16;101037.22;5293834;28;20032;-68
2021/07/29 10:48:48;;;;;;;10.00;2.83;;;;;;;19.60;71.54;101043.69;5295425;28;20474;-69
2021/07/29 10:51:26;;;;;;;7.97;2.45;;;;;;;19.47;74.80;101053.31;5290464;28;20044;-71
2021/07/29 10:53:58;;;;;;;12.85;3.00;;;;;;;19.26;77.05;101068.16;5291161;28;20051;-69
2021/07/29 10:56:29;;;;;;;9.87;2.73;;;;;;;19.01;78.75;101064.06;5295552;28;20016;-70
2021/07/29 10:59:07;;;;;;;10.67;2.70;;;;;;;19.01;79.26;101061.41;5295719;28;20568;-69
2021/07/29 11:01:47;;;;;;;9.75;2.78;;;;;;;19.01;80.85;101064.91;5294804;28;20031;-72
2021/07/29 11:04:28;;;;;;;12.30;2.53;;;;;;;19.61;82.72;101066.59;5292437;28;20086;-71
2021/07/29 11:07:05;;;;;;;10.20;2.92;;;;;;;19.84;80.79;101052.41;5292209;28;20028;-70
2021/07/29 11:09:37;;;;;;;9.75;2.97;;;;;;;20.51;79.43;101051.34;5270957;28;20538;-72
2021/07/29 11:12:30;;;;;;;14.03;3.33;;;;;;;20.55;74.69;101058.75;5293196;28;20028;-70
2021/07/29 11:15:03;;;;;;;8.52;2.83;;;;;;;20.16;74.41;101059.97;5291099;28;20024;-70
2021/07/29 11:17:38;;;;;;;9.20;2.45;;;;;;;19.86;76.64;101053.06;5291292;28;20562;-71
2021/07/29 11:20:10;;;;;;;7.88;2.67;;;;;;;19.75;76.51;101053.53;5291066;28;20024;-70
2021/07/29 11:22:52;;;;;;;6.88;2.85;;;;;;;19.59;77.85;101058.00;5291765;28;20020;-70
2021/07/29 11:25:27;;;;;;;7.68;2.95;;;;;;;19.47;78.33;101078.03;5291377;28;20047;-70
2021/07/29 11:28:13;;;;;;;13.38;3.58;;;;;;;19.62;78.66;101063.00;5291721;28;20028;-72
2021/07/29 11:30:46;;;;;;;6.63;2.63;;;;;;;19.67;79.04;101060.59;5291160;28;20073;-72
2021/07/29 11:33:22;;;;;;;8.25;3.13;;;;;;;20.01;79.63;101050.38;5293810;28;20056;-69
2021/07/29 11:36:09;;;;;;;11.57;3.10;;;;;;;20.08;77.60;101043.31;5292750;28;20032;-70
2021/07/29 11:38:53;;;;;;;10.50;3.03;;;;;;;20.07;77.44;101042.44;5292271;28;20024;-72
2021/07/29 11:41:24;;;;;;;9.20;3.22;;;;;;;20.12;78.84;101045.38;5265755;28;20024;-72
2021/07/29 11:44:03;;;;;;;11.63;3.27;;;;;;;20.22;78.42;101033.59;5292305;28;20040;-71
2021/07/29 11:46:35;;;;;;;11.10;3.17;;;;;;;20.09;76.76;101031.63;5288190;28;20024;-72
2021/07/29 11:49:07;;;;;;;10.40;2.87;;;;;;;20.00;73.48;101033.59;5275468;28;20131;-72
2021/07/29 11:52:12;;;;;;;12.18;3.25;;;;;;;20.07;76.64;101053.09;5291765;28;20111;-72
2021/07/29 11:54:52;;;;;;;11.73;3.20;;;;;;;19.66;79.83;101055.44;5291788;28;20021;-73
2021/07/29 11:57:28;;;;;;;11.85;3.22;;;;;;;19.61;79.85;101055.16;5292855;28;20055;-70
2021/07/29 12:00:00;;;;;;;7.80;3.13;;;;;;;19.59;79.48;101060.66;5290342;28;20139;-69
2021/07/29 12:02:31;;;;;;;10.77;2.90;;;;;;;19.81;79.48;101056.28;5291254;28;20020;-69
2021/07/29 12:05:05;;;;;;;8.27;3.20;;;;;;;19.75;79.56;101054.34;5291381;28;20081;-70
2021/07/29 12:07:40;;;;;;;15.05;3.85;;;;;;;19.75;78.47;101048.22;5291581;28;20028;-69
2021/07/29 12:10:11;;;;;;;10.07;3.92;;;;;;;20.11;79.39;101038.41;5290117;28;20077;-70
2021/07/29 12:12:43;;;;;;;10.37;3.53;;;;;;;20.18;78.97;101041.97;5294198;28;20468;-69
2021/07/29 12:15:14;;;;;;;13.70;4.00;;;;;;;19.99;77.96;101050.53;5295399;28;20502;-70
2021/07/29 12:17:46;;;;;;;12.33;4.00;;;;;;;20.05;79.81;101051.66;5293871;28;20103;-69
2021/07/29 12:20:19;;;;;;;10.30;4.00;;;;;;;19.82;77.98;101054.44;5292311;28;20050;-69
2021/07/29 12:22:50;;;;;;;11.85;3.70;;;;;;;19.76;79.78;101058.66;5293338;28;20381;-69
2021/07/29 12:25:31;;;;;;;13.80;4.50;;;;;;;19.87;77.48;101062.69;5294026;28;20032;-70